Terminal Aerodrome Forecast
Issued by NWS

Home | Current Version | Previous Version | Text Only | Print | Product List | Glossary On
Versions: 1 2 3 4 5 6 7 8 9 10 11 12 13 14 15 16 17 18 19 20
967
FTUS41 KPHI 262337
TAFPNE
TAF
KPNE 262337Z 2700/2724 28012KT P6SM BKN050
     FM270500 29004KT P6SM FEW070
     FM271400 VRB03KT P6SM BKN100
      TEMPO 2716/2720 6SM -SHRA OVC035
     FM272100 VRB03KT P6SM BKN040=

USA.gov is the U.S. government's official web portal to all federal, state and local government web resources and services.